Time;durP1;ratioP1;P1;durP2;ratioP2;P2;SDS_P1;SDS_P2;PMS_P1;PMS_P2;Temp;Humidity;BMP_temperature;BMP_pressure;BME280_temperature;BME280_humidity;BME280_pressure;Samples;Min_cycle;Max_cycle;Signal;HPM_P1;HPM_P2
2023/01/01 00:00:21;;;;;;;3.00;2.00;;;12.70;87.00;;;;;;4115974;28;20588;-65
2023/01/01 00:02:21;;;;;;;3.50;2.00;;;12.70;85.80;;;;;;4115774;28;20187;-64
2023/01/01 00:04:22;;;;;;;3.47;2.23;;;12.80;85.80;;;;;;4099044;29;20935;-62
2023/01/01 00:06:24;;;;;;;5.13;3.00;;;12.60;86.30;;;;;;4116293;28;20691;-65
2023/01/01 00:08:24;;;;;;;3.70;2.53;;;12.60;87.10;;;;;;4115414;28;20202;-63
2023/01/01 00:10:28;;;;;;;2.67;1.70;;;12.60;87.30;;;;;;4115843;28;20202;-64
2023/01/01 00:12:30;;;;;;;2.17;1.40;;;12.60;87.60;;;;;;4115887;28;20494;-63
2023/01/01 00:14:31;;;;;;;1.70;1.50;;;12.60;87.60;;;;;;4098605;29;20214;-64
2023/01/01 00:16:32;;;;;;;2.30;1.67;;;12.60;87.90;;;;;;4115086;28;20183;-63
2023/01/01 00:18:33;;;;;;;1.80;1.57;;;12.60;87.50;;;;;;4115757;28;20608;-62
2023/01/01 00:20:34;;;;;;;3.00;1.97;;;12.70;87.20;;;;;;4115231;28;20213;-63
2023/01/01 00:22:34;;;;;;;1.87;1.40;;;12.70;87.30;;;;;;4115787;28;20713;-61
2023/01/01 00:24:35;;;;;;;2.40;1.40;;;12.60;87.60;;;;;;4138232;28;20747;-63
2023/01/01 00:26:36;;;;;;;1.37;1.20;;;12.50;88.10;;;;;;4125328;28;20583;-63
2023/01/01 00:28:37;;;;;;;2.93;1.70;;;12.50;88.30;;;;;;4130031;28;20198;-62
2023/01/01 00:30:39;;;;;;;1.90;1.50;;;12.50;88.90;;;;;;4125348;28;20214;-62
2023/01/01 00:32:40;;;;;;;2.13;1.30;;;12.50;88.60;;;;;;4143105;28;20213;-61
2023/01/01 00:34:40;;;;;;;1.40;1.10;;;12.50;88.40;;;;;;4134165;28;20202;-62
2023/01/01 00:36:41;;;;;;;3.03;1.20;;;12.50;88.50;;;;;;4142641;28;20181;-61
2023/01/01 00:38:44;;;;;;;1.97;1.10;;;12.40;89.20;;;;;;4133669;28;20183;-61
2023/01/01 00:40:44;;;;;;;1.50;1.40;;;12.40;89.30;;;;;;4143736;28;20193;-61
2023/01/01 00:42:45;;;;;;;2.93;1.10;;;12.30;90.00;;;;;;4133553;28;20190;-62
2023/01/01 00:44:46;;;;;;;3.10;1.53;;;12.40;89.30;;;;;;4144359;28;20197;-64
2023/01/01 00:46:46;;;;;;;2.13;1.30;;;12.40;89.50;;;;;;4146024;28;20240;-63
2023/01/01 00:48:47;;;;;;;2.13;1.07;;;12.50;89.30;;;;;;4132627;28;20249;-63
2023/01/01 00:50:50;;;;;;;1.80;1.27;;;12.40;89.90;;;;;;4144315;28;20201;-64
2023/01/01 00:52:51;;;;;;;2.37;1.40;;;12.40;90.00;;;;;;4132514;28;20194;-64
2023/01/01 00:54:51;;;;;;;1.80;1.17;;;12.40;89.80;;;;;;4144431;28;20212;-64
2023/01/01 00:56:52;;;;;;;1.67;1.30;;;12.40;89.80;;;;;;4131840;28;20213;-64
2023/01/01 00:58:53;;;;;;;1.40;1.00;;;12.40;89.60;;;;;;4144471;28;20273;-64
2023/01/01 01:00:54;;;;;;;2.00;1.20;;;12.40;89.80;;;;;;4132157;28;20244;-65
2023/01/01 01:02:55;;;;;;;1.63;1.30;;;12.40;89.80;;;;;;4144854;28;20242;-64
2023/01/01 01:04:55;;;;;;;3.10;1.10;;;12.50;88.90;;;;;;4131843;28;20187;-64
2023/01/01 01:06:56;;;;;;;1.67;1.20;;;12.50;88.90;;;;;;4144470;28;20192;-63
2023/01/01 01:08:58;;;;;;;2.03;1.20;;;12.50;88.50;;;;;;4128703;28;20685;-63
2023/01/01 01:11:11;;;;;;;1.57;1.10;;;12.40;89.00;;;;;;4145560;28;20537;-63
2023/01/01 01:13:12;;;;;;;1.67;1.10;;;12.40;90.10;;;;;;4115953;28;20171;-64
2023/01/01 01:15:14;;;;;;;1.40;1.13;;;12.40;88.90;;;;;;4145500;28;20210;-64
2023/01/01 01:17:14;;;;;;;1.50;1.00;;;12.40;88.70;;;;;;4130689;28;20191;-63
2023/01/01 01:19:17;;;;;;;1.30;1.00;;;12.40;88.50;;;;;;4129004;28;20600;-63
2023/01/01 01:21:20;;;;;;;1.10;0.87;;;12.50;86.60;;;;;;4131815;28;20186;-62
2023/01/01 01:23:21;;;;;;;1.57;1.10;;;12.50;88.00;;;;;;4144067;28;20182;-65
2023/01/01 01:25:22;;;;;;;1.20;0.93;;;12.40;87.20;;;;;;4131950;28;20186;-62
2023/01/01 01:27:23;;;;;;;1.57;0.90;;;12.50;85.60;;;;;;4128247;28;20194;-63
2023/01/01 01:29:24;;;;;;;1.17;1.07;;;12.60;85.30;;;;;;4128071;28;20219;-63
2023/01/01 01:31:29;;;;;;;1.13;0.87;;;12.60;85.60;;;;;;4143500;28;20201;-63
2023/01/01 01:33:30;;;;;;;1.00;0.80;;;12.60;85.00;;;;;;4132989;28;20194;-64
2023/01/01 01:35:31;;;;;;;1.73;0.93;;;12.70;83.70;;;;;;4128401;28;20261;-64
2023/01/01 01:37:32;;;;;;;1.77;1.13;;;12.60;84.40;;;;;;4132810;28;20659;-63
2023/01/01 01:39:33;;;;;;;1.20;1.00;;;12.60;83.80;;;;;;4141613;28;20206;-63
2023/01/01 01:41:34;;;;;;;0.87;0.80;;;12.60;83.30;;;;;;4133775;28;20182;-64
2023/01/01 01:43:34;;;;;;;4.70;1.00;;;12.60;83.10;;;;;;4144234;28;20182;-63
2023/01/01 01:45:35;;;;;;;1.10;0.80;;;12.70;82.50;;;;;;4133473;28;20189;-62
2023/01/01 01:47:50;;;;;;;1.07;0.97;;;12.70;81.60;;;;;;4141381;28;20540;-64
2023/01/01 01:50:18;;;;;;;2.87;0.90;;;12.80;81.10;;;;;;4128160;28;20574;-64
2023/01/01 01:52:19;;;;;;;0.90;0.80;;;12.80;81.20;;;;;;4135873;28;20277;-63
2023/01/01 01:54:23;;;;;;;1.60;0.80;;;12.80;81.00;;;;;;4139223;28;20331;-62
2023/01/01 01:56:56;;;;;;;1.93;1.00;;;12.80;80.80;;;;;;4127486;28;20190;-62
2023/01/01 01:58:57;;;;;;;1.10;1.00;;;12.80;80.60;;;;;;4127137;28;20198;-63
2023/01/01 02:00:58;;;;;;;1.63;0.80;;;12.70;80.90;;;;;;4145886;28;20216;-63
2023/01/01 02:03:07;;;;;;;1.03;0.83;;;12.90;80.50;;;;;;4128336;28;20182;-64
2023/01/01 02:05:07;;;;;;;1.33;0.90;;;12.80;81.30;;;;;;4146010;28;20173;-63
2023/01/01 02:07:08;;;;;;;3.50;0.83;;;12.80;81.30;;;;;;4145735;28;20181;-62
2023/01/01 02:09:09;;;;;;;0.87;0.70;;;12.70;81.20;;;;;;4145782;28;20271;-62
2023/01/01 02:11:09;;;;;;;1.13;0.70;;;12.70;81.60;;;;;;4128701;28;20258;-63
2023/01/01 02:13:10;;;;;;;0.80;0.70;;;12.60;82.20;;;;;;4145764;28;20190;-62
2023/01/01 02:15:11;;;;;;;0.80;0.80;;;12.60;82.30;;;;;;4145632;28;20213;-62
2023/01/01 02:17:34;;;;;;;0.90;0.80;;;12.60;83.30;;;;;;4127788;28;20170;-63
2023/01/01 02:20:02;;;;;;;1.27;0.90;;;12.40;83.90;;;;;;4112377;28;20215;-63
2023/01/01 02:22:26;;;;;;;1.33;0.80;;;12.30;84.60;;;;;;4145877;28;20261;-63
2023/01/01 02:25:12;;;;;;;1.80;1.00;;;12.40;84.90;;;;;;4115349;28;20191;-63
2023/01/01 02:27:48;;;;;;;1.40;1.13;;;12.50;84.40;;;;;;4098528;28;20217;-64
2023/01/01 02:29:55;;;;;;;2.40;0.87;;;12.50;84.00;;;;;;4129555;28;20413;-63
2023/01/01 02:32:12;;;;;;;1.00;0.90;;;12.50;84.20;;;;;;4112491;28;20175;-63
2023/01/01 02:34:17;;;;;;;1.23;0.80;;;12.40;85.40;;;;;;4112172;28;20261;-63
2023/01/01 02:36:20;;;;;;;0.97;0.83;;;12.40;85.80;;;;;;4112230;28;20192;-63
2023/01/01 02:38:42;;;;;;;0.90;0.80;;;12.30;85.80;;;;;;4112193;28;20178;-63
2023/01/01 02:40:48;;;;;;;0.97;0.90;;;12.40;85.70;;;;;;4111871;28;20809;-63
2023/01/01 02:42:51;;;;;;;1.60;0.70;;;12.40;86.20;;;;;;4112267;28;20274;-63
2023/01/01 02:44:55;;;;;;;0.80;0.70;;;12.50;85.00;;;;;;4112221;28;20179;-63
2023/01/01 02:46:56;;;;;;;2.07;1.00;;;12.40;86.30;;;;;;4111553;28;20183;-63
2023/01/01 02:48:57;;;;;;;1.13;0.80;;;12.40;85.30;;;;;;4129625;28;20249;-63
2023/01/01 02:51:03;;;;;;;4.13;1.53;;;12.20;86.60;;;;;;4130868;28;20277;-63
2023/01/01 02:53:31;;;;;;;3.90;1.50;;;12.10;87.10;;;;;;4099227;28;20191;-63
2023/01/01 02:56:24;;;;;;;1.83;1.13;;;12.10;87.10;;;;;;4115162;28;20214;-63
2023/01/01 03:01:32;;;;;;;2.47;1.20;;;12.30;85.90;;;;;;4106239;28;20222;-62
2023/01/01 03:03:43;;;;;;;2.70;1.10;;;12.30;86.30;;;;;;4132469;28;20177;-67
2023/01/01 03:08:22;;;;;;;1.43;1.07;;;12.20;86.00;;;;;;4114615;28;20595;-63
2023/01/01 03:11:04;;;;;;;0.93;0.90;;;12.30;86.10;;;;;;4114796;28;20337;-63
2023/01/01 03:13:21;;;;;;;1.30;0.90;;;12.30;85.60;;;;;;4114936;28;20187;-63
2023/01/01 03:15:35;;;;;;;1.97;1.07;;;12.50;84.80;;;;;;4114751;28;20213;-63
2023/01/01 03:17:44;;;;;;;1.37;0.90;;;12.40;85.10;;;;;;4114241;28;20590;-63
2023/01/01 03:19:47;;;;;;;2.13;1.20;;;12.30;85.20;;;;;;4132276;28;20202;-63
2023/01/01 03:22:04;;;;;;;4.07;1.97;;;12.30;85.50;;;;;;4130675;28;20202;-63
2023/01/01 03:24:08;;;;;;;1.60;1.30;;;12.30;85.30;;;;;;4130670;28;20197;-63
2023/01/01 03:26:12;;;;;;;2.40;1.93;;;12.40;84.90;;;;;;4131829;28;20193;-63
2023/01/01 03:28:29;;;;;;;1.40;1.03;;;12.30;85.40;;;;;;4114439;28;20306;-63
2023/01/01 03:30:34;;;;;;;1.30;1.00;;;12.30;85.20;;;;;;4114829;28;20273;-63
2023/01/01 03:35:03;;;;;;;4.60;2.77;;;12.40;84.80;;;;;;4117375;28;20214;-63
2023/01/01 03:37:14;;;;;;;2.07;1.40;;;12.30;84.90;;;;;;4114042;28;20260;-63
2023/01/01 03:39:42;;;;;;;2.10;1.80;;;12.20;85.00;;;;;;4105966;28;20281;-63
2023/01/01 03:41:51;;;;;;;4.13;2.50;;;12.20;85.50;;;;;;4098849;29;20163;-63
2023/01/01 03:44:17;;;;;;;1.67;1.17;;;12.00;85.80;;;;;;4098846;29;20997;-63
2023/01/01 03:46:25;;;;;;;2.13;1.30;;;11.90;87.00;;;;;;4098475;29;20193;-63
2023/01/01 03:48:25;;;;;;;1.67;1.10;;;12.00;86.60;;;;;;4115515;28;20178;-63
2023/01/01 03:51:01;;;;;;;1.60;0.80;;;12.10;85.60;;;;;;4115824;28;20269;-63
2023/01/01 03:53:23;;;;;;;1.40;1.20;;;12.30;84.50;;;;;;4098353;29;20737;-63
2023/01/01 03:55:36;;;;;;;1.70;0.83;;;12.40;83.80;;;;;;4098586;29;20208;-63
2023/01/01 03:58:24;;;;;;;3.33;1.17;;;12.40;83.40;;;;;;4097891;29;20192;-63
2023/01/01 04:00:32;;;;;;;1.27;0.83;;;12.40;84.10;;;;;;4098443;29;20705;-63
2023/01/01 04:02:58;;;;;;;1.67;1.10;;;12.40;82.90;;;;;;4097364;28;20190;-67
2023/01/01 04:05:00;;;;;;;1.20;0.83;;;12.30;83.40;;;;;;4115453;28;20219;-63
2023/01/01 04:07:01;;;;;;;0.73;0.73;;;12.40;82.60;;;;;;4114810;28;20269;-63
2023/01/01 04:09:08;;;;;;;0.77;0.70;;;12.40;82.50;;;;;;4098553;29;20200;-64
2023/01/01 04:13:47;;;;;;;0.83;0.83;;;12.40;82.60;;;;;;4101130;28;20256;-63
2023/01/01 04:15:47;;;;;;;2.47;0.70;;;12.30;81.70;;;;;;4115674;28;20241;-63
2023/01/01 04:17:48;;;;;;;2.20;1.00;;;12.30;81.80;;;;;;4114922;28;20411;-63
2023/01/01 04:19:49;;;;;;;1.37;0.90;;;12.30;81.90;;;;;;4115144;28;20285;-63
2023/01/01 04:21:49;;;;;;;0.80;0.77;;;12.30;81.70;;;;;;4115336;28;20183;-63
2023/01/01 04:23:50;;;;;;;1.87;0.83;;;12.40;81.60;;;;;;4115416;28;20195;-63
2023/01/01 04:25:51;;;;;;;1.00;0.90;;;12.30;81.80;;;;;;4115396;28;20194;-63
2023/01/01 04:27:51;;;;;;;2.00;0.80;;;12.20;81.50;;;;;;4114623;28;20217;-63
2023/01/01 04:29:52;;;;;;;0.90;0.80;;;12.30;80.30;;;;;;4115167;28;20207;-63
2023/01/01 04:31:53;;;;;;;1.30;0.80;;;12.40;80.40;;;;;;4097920;29;20187;-63
2023/01/01 04:33:54;;;;;;;1.80;1.00;;;12.30;79.70;;;;;;4114979;28;20631;-63
2023/01/01 04:35:54;;;;;;;1.03;0.80;;;12.20;80.40;;;;;;4115042;28;20641;-63
2023/01/01 04:37:55;;;;;;;1.10;0.73;;;12.20;79.20;;;;;;4114293;28;20183;-66
2023/01/01 04:39:56;;;;;;;3.10;0.90;;;12.30;78.30;;;;;;4115229;28;20227;-63
2023/01/01 04:41:56;;;;;;;0.83;0.70;;;12.20;79.50;;;;;;4115149;28;20202;-63
2023/01/01 04:43:57;;;;;;;1.20;0.90;;;12.30;77.70;;;;;;4114959;28;20187;-63
2023/01/01 04:46:02;;;;;;;2.60;0.83;;;12.40;77.60;;;;;;4115147;28;20194;-63
2023/01/01 04:48:06;;;;;;;1.47;1.03;;;12.40;77.10;;;;;;4120369;28;20206;-63
2023/01/01 04:50:07;;;;;;;3.70;0.80;;;12.40;76.20;;;;;;4131105;28;20237;-63
2023/01/01 04:52:08;;;;;;;1.10;0.70;;;12.50;75.90;;;;;;4130835;28;20558;-63
2023/01/01 04:54:08;;;;;;;1.23;0.93;;;12.50;75.30;;;;;;4130869;28;20273;-63
2023/01/01 04:56:20;;;;;;;2.57;0.90;;;12.40;75.50;;;;;;4130811;28;20218;-64
2023/01/01 04:58:21;;;;;;;1.17;0.80;;;12.40;76.00;;;;;;4131071;28;20193;-63
2023/01/01 05:00:22;;;;;;;2.10;0.83;;;12.40;75.80;;;;;;4130899;28;20206;-63
2023/01/01 05:02:23;;;;;;;2.10;0.97;;;12.40;74.50;;;;;;4130882;28;20230;-63
2023/01/01 05:04:23;;;;;;;1.67;0.80;;;12.40;74.80;;;;;;4130945;28;20186;-63
2023/01/01 05:06:25;;;;;;;1.20;0.90;;;12.40;74.90;;;;;;4113009;28;20270;-63
2023/01/01 05:08:29;;;;;;;1.33;0.77;;;12.30;74.60;;;;;;4133094;28;20262;-64
2023/01/01 05:10:30;;;;;;;1.50;1.00;;;12.50;73.00;;;;;;4138048;28;20206;-63
2023/01/01 05:12:30;;;;;;;2.50;0.93;;;12.70;72.60;;;;;;4138199;28;20222;-63
2023/01/01 05:14:31;;;;;;;1.87;1.10;;;12.70;72.50;;;;;;4129799;28;20191;-63
2023/01/01 05:16:35;;;;;;;2.77;1.10;;;12.60;71.80;;;;;;4111703;28;20195;-63
2023/01/01 05:18:37;;;;;;;1.83;0.90;;;12.50;73.00;;;;;;4109648;28;20273;-63
2023/01/01 05:20:38;;;;;;;2.00;0.90;;;12.50;72.90;;;;;;4137734;28;20224;-64
2023/01/01 05:22:38;;;;;;;1.40;0.80;;;12.50;72.30;;;;;;4138381;28;20769;-64
2023/01/01 05:24:39;;;;;;;1.40;0.90;;;12.50;72.50;;;;;;4138110;28;20751;-63
2023/01/01 05:26:45;;;;;;;2.43;1.10;;;12.50;72.00;;;;;;4137990;28;20248;-63
2023/01/01 05:28:46;;;;;;;2.30;1.10;;;12.40;72.90;;;;;;4138133;28;20166;-63
2023/01/01 05:30:47;;;;;;;3.80;1.50;;;12.30;72.80;;;;;;4138138;28;20174;-63
2023/01/01 05:32:47;;;;;;;2.07;1.10;;;12.30;73.10;;;;;;4137700;28;20937;-63
2023/01/01 05:34:48;;;;;;;1.63;1.10;;;12.30;73.50;;;;;;4133044;28;20205;-63
2023/01/01 05:36:49;;;;;;;2.40;1.23;;;12.10;73.40;;;;;;4132766;28;20719;-63
2023/01/01 05:38:50;;;;;;;2.70;1.03;;;12.00;74.30;;;;;;4137122;28;20175;-63
2023/01/01 05:40:51;;;;;;;4.27;1.40;;;11.90;74.30;;;;;;4138239;28;20179;-63
2023/01/01 05:42:52;;;;;;;3.00;1.73;;;11.90;75.30;;;;;;4132978;28;20194;-63
2023/01/01 05:44:52;;;;;;;2.90;1.60;;;11.90;75.10;;;;;;4122503;28;20653;-63
2023/01/01 05:46:53;;;;;;;3.80;1.90;;;11.80;75.40;;;;;;4121374;28;20746;-63
2023/01/01 05:48:54;;;;;;;4.73;1.83;;;11.50;76.80;;;;;;4103330;29;20199;-63
2023/01/01 05:51:11;;;;;;;4.97;3.30;;;11.20;78.50;;;;;;4121526;28;20586;-63
2023/01/01 05:53:12;;;;;;;5.30;3.10;;;10.90;81.80;;;;;;4104775;29;20312;-63
2023/01/01 05:55:13;;;;;;;3.73;2.17;;;10.40;84.00;;;;;;4120849;28;20994;-63
2023/01/01 05:57:14;;;;;;;5.77;3.70;;;10.20;85.50;;;;;;4120652;28;20179;-63
2023/01/01 05:59:14;;;;;;;7.27;3.83;;;10.10;86.20;;;;;;4121179;28;20198;-63
2023/01/01 06:01:22;;;;;;;4.43;3.00;;;9.90;88.50;;;;;;4121294;28;20190;-63
2023/01/01 06:03:23;;;;;;;5.30;3.60;;;9.60;90.30;;;;;;4120636;28;20170;-63
2023/01/01 06:05:23;;;;;;;5.97;3.93;;;9.50;91.20;;;;;;4120607;28;20187;-63
2023/01/01 06:07:24;;;;;;;5.97;3.87;;;9.30;91.60;;;;;;4120330;28;20194;-63
2023/01/01 06:09:25;;;;;;;4.73;2.40;;;9.30;91.60;;;;;;4120460;28;20610;-63
2023/01/01 06:11:27;;;;;;;5.80;3.93;;;9.20;92.50;;;;;;4121001;28;20189;-63
2023/01/01 06:13:29;;;;;;;5.43;4.07;;;9.10;92.70;;;;;;4117114;28;20724;-63
2023/01/01 06:15:30;;;;;;;5.73;3.50;;;8.70;93.70;;;;;;4098140;29;20215;-63
2023/01/01 06:17:32;;;;;;;5.27;3.83;;;8.30;95.10;;;;;;4121696;28;20192;-63
2023/01/01 06:19:33;;;;;;;8.47;4.57;;;8.20;96.50;;;;;;4122087;28;20225;-63
2023/01/01 06:21:34;;;;;;;6.57;4.00;;;8.30;96.10;;;;;;4121320;28;20186;-63
2023/01/01 06:23:35;;;;;;;10.07;5.70;;;8.20;95.50;;;;;;4121049;28;20219;-63
2023/01/01 06:25:36;;;;;;;8.23;4.60;;;8.00;97.10;;;;;;4103604;28;20188;-63
2023/01/01 06:27:37;;;;;;;10.43;5.30;;;7.70;98.20;;;;;;4121145;28;20607;-63
2023/01/01 06:29:37;;;;;;;7.83;4.60;;;7.60;98.70;;;;;;4103862;29;20650;-63
2023/01/01 06:31:38;;;;;;;7.33;4.40;;;7.50;99.50;;;;;;4121221;28;20274;-63
2023/01/01 06:33:39;;;;;;;8.87;4.27;;;7.60;99.50;;;;;;4114617;28;20191;-63
2023/01/01 06:35:40;;;;;;;7.70;4.17;;;7.50;99.40;;;;;;4113528;28;20310;-63
2023/01/01 06:37:40;;;;;;;7.37;4.23;;;7.60;99.70;;;;;;4095698;29;20714;-63
2023/01/01 06:39:41;;;;;;;6.90;4.00;;;7.60;99.80;;;;;;4114085;28;20736;-63
2023/01/01 06:41:42;;;;;;;6.53;3.73;;;7.50;99.90;;;;;;4113379;28;20665;-62
2023/01/01 06:43:43;;;;;;;8.53;4.67;;;7.50;99.90;;;;;;4113431;28;20657;-62
2023/01/01 06:45:43;;;;;;;10.77;5.33;;;7.40;99.90;;;;;;4113204;28;20831;-62
2023/01/01 06:47:44;;;;;;;10.00;4.13;;;7.50;99.90;;;;;;4112887;28;20183;-62
2023/01/01 06:49:45;;;;;;;6.43;3.90;;;7.50;99.90;;;;;;4114075;28;20209;-62
2023/01/01 06:51:45;;;;;;;7.23;3.80;;;7.50;99.90;;;;;;4128864;28;20198;-62
2023/01/01 06:53:47;;;;;;;9.80;4.40;;;7.50;99.90;;;;;;4111849;28;20195;-63
2023/01/01 06:55:48;;;;;;;6.27;3.90;;;7.30;99.90;;;;;;4129020;28;20209;-63
2023/01/01 06:57:51;;;;;;;7.87;4.20;;;7.40;99.90;;;;;;4128961;28;20186;-63
2023/01/01 06:59:52;;;;;;;7.23;4.20;;;7.30;99.90;;;;;;4129382;28;20468;-62
2023/01/01 07:01:52;;;;;;;9.87;5.60;;;7.30;99.90;;;;;;4129436;28;20421;-63
2023/01/01 07:04:03;;;;;;;8.07;4.77;;;7.40;99.90;;;;;;4129069;28;20189;-62
2023/01/01 07:06:05;;;;;;;10.93;4.90;;;7.40;99.90;;;;;;4133145;28;20528;-63
2023/01/01 07:08:05;;;;;;;8.53;5.13;;;7.40;99.90;;;;;;4111983;28;20729;-64
2023/01/01 07:10:07;;;;;;;11.13;5.33;;;7.30;99.90;;;;;;4128890;28;20225;-63
2023/01/01 07:12:07;;;;;;;7.57;4.37;;;7.40;99.90;;;;;;4128864;28;20186;-63
2023/01/01 07:14:08;;;;;;;7.80;5.40;;;7.20;99.90;;;;;;4129059;28;20947;-63
2023/01/01 07:16:09;;;;;;;10.90;5.53;;;7.20;99.90;;;;;;4129024;28;20226;-63
2023/01/01 07:18:10;;;;;;;11.67;5.90;;;7.20;99.90;;;;;;4128354;28;20185;-62
2023/01/01 07:20:10;;;;;;;10.33;6.33;;;7.20;99.90;;;;;;4128910;28;20249;-62
2023/01/01 07:22:11;;;;;;;15.53;7.37;;;7.30;99.90;;;;;;4128851;28;20188;-62
2023/01/01 07:24:14;;;;;;;11.47;6.27;;;7.30;99.90;;;;;;4128739;28;20182;-62
2023/01/01 07:26:15;;;;;;;9.27;5.43;;;7.10;99.90;;;;;;4111759;28;20195;-62
2023/01/01 07:28:16;;;;;;;11.47;6.10;;;6.90;99.90;;;;;;4111059;28;20390;-62
2023/01/01 07:30:17;;;;;;;11.80;6.83;;;7.00;99.90;;;;;;4129091;28;20210;-62
2023/01/01 07:32:17;;;;;;;15.63;7.30;;;7.10;99.90;;;;;;4128984;28;20191;-62
2023/01/01 07:34:18;;;;;;;15.47;7.57;;;7.20;99.90;;;;;;4111729;28;20195;-62
2023/01/01 07:36:19;;;;;;;14.73;7.97;;;7.20;99.90;;;;;;4111107;28;20222;-62
2023/01/01 07:38:19;;;;;;;13.77;7.10;;;7.20;99.90;;;;;;4112964;28;20334;-62
2023/01/01 07:40:20;;;;;;;14.47;7.57;;;7.40;99.90;;;;;;4132036;28;20198;-63
2023/01/01 07:42:21;;;;;;;16.10;7.87;;;7.40;99.90;;;;;;4112641;28;20187;-62
2023/01/01 07:44:21;;;;;;;15.47;7.30;;;7.40;99.90;;;;;;4116200;28;20273;-62
2023/01/01 07:46:22;;;;;;;16.10;8.07;;;7.30;99.90;;;;;;4115091;28;20191;-62
2023/01/01 07:48:23;;;;;;;13.63;6.67;;;7.30;99.90;;;;;;4115412;28;20673;-62
2023/01/01 07:50:27;;;;;;;14.17;6.93;;;7.20;99.90;;;;;;4115392;28;20301;-62
2023/01/01 07:52:28;;;;;;;15.23;7.10;;;7.30;99.90;;;;;;4115533;28;20580;-62
2023/01/01 07:54:28;;;;;;;13.37;7.20;;;7.30;99.90;;;;;;4115559;28;20250;-62
2023/01/01 07:56:29;;;;;;;14.37;8.87;;;7.20;99.90;;;;;;4114867;28;20194;-62
2023/01/01 07:58:29;;;;;;;13.70;7.40;;;7.30;99.90;;;;;;4098062;29;20719;-63
2023/01/01 08:00:30;;;;;;;14.33;7.10;;;7.30;99.90;;;;;;4115576;28;20870;-62
2023/01/01 08:02:31;;;;;;;13.40;7.40;;;7.40;99.90;;;;;;4115600;28;20658;-62
2023/01/01 08:04:32;;;;;;;11.47;6.77;;;7.60;99.90;;;;;;4115575;28;20880;-62
2023/01/01 08:06:33;;;;;;;11.63;7.03;;;7.60;99.90;;;;;;4114620;28;20270;-62
2023/01/01 08:08:33;;;;;;;12.33;7.07;;;7.50;99.90;;;;;;4115045;28;20191;-62
2023/01/01 08:10:34;;;;;;;12.63;7.23;;;7.50;99.90;;;;;;4115483;28;20206;-63
2023/01/01 08:12:35;;;;;;;13.10;6.50;;;7.60;99.90;;;;;;4098094;29;20180;-63
2023/01/01 08:14:35;;;;;;;12.57;7.43;;;7.60;99.90;;;;;;4115307;28;20211;-63
2023/01/01 08:16:36;;;;;;;12.43;7.13;;;7.60;99.90;;;;;;4114734;28;20700;-63
2023/01/01 08:18:37;;;;;;;14.70;7.17;;;7.60;99.90;;;;;;4115027;28;20515;-63
2023/01/01 08:20:37;;;;;;;15.00;8.00;;;7.70;99.90;;;;;;4115722;28;20848;-63
2023/01/01 08:22:38;;;;;;;12.97;6.90;;;7.60;99.90;;;;;;4115117;28;20227;-64
2023/01/01 08:24:39;;;;;;;13.93;7.30;;;7.60;99.90;;;;;;4115121;28;20190;-63
2023/01/01 08:26:40;;;;;;;12.37;7.57;;;7.70;99.90;;;;;;4114426;28;20183;-63
2023/01/01 08:28:40;;;;;;;15.23;7.70;;;7.70;99.90;;;;;;4114600;28;20194;-63
2023/01/01 08:30:41;;;;;;;13.27;6.43;;;7.70;99.90;;;;;;4097430;29;20898;-64
2023/01/01 08:32:42;;;;;;;13.50;7.57;;;7.70;99.90;;;;;;4097647;29;20202;-63
2023/01/01 08:34:42;;;;;;;13.63;6.20;;;7.90;99.90;;;;;;4114648;28;20206;-63
2023/01/01 08:36:43;;;;;;;13.00;7.40;;;8.10;99.90;;;;;;4097033;29;20215;-63
2023/01/01 08:38:44;;;;;;;12.10;7.07;;;7.90;99.90;;;;;;4097742;29;20180;-62
2023/01/01 08:40:44;;;;;;;11.83;6.20;;;8.00;99.90;;;;;;4097478;29;20282;-62
2023/01/01 08:42:45;;;;;;;9.80;5.40;;;8.00;99.90;;;;;;4114671;28;20486;-63
2023/01/01 08:44:46;;;;;;;9.97;5.67;;;8.10;99.90;;;;;;4114875;28;20186;-62
2023/01/01 08:46:46;;;;;;;10.57;6.03;;;8.20;99.90;;;;;;4113865;28;20190;-63
2023/01/01 08:48:47;;;;;;;9.33;5.50;;;8.30;99.90;;;;;;4113980;28;20183;-63
2023/01/01 08:50:56;;;;;;;9.00;5.50;;;8.40;99.90;;;;;;4114395;28;20191;-62
2023/01/01 08:52:58;;;;;;;10.30;6.13;;;8.60;99.90;;;;;;4114401;28;20178;-63
2023/01/01 08:54:59;;;;;;;9.07;5.63;;;8.70;99.90;;;;;;4096971;29;20211;-63
2023/01/01 08:57:00;;;;;;;10.00;6.00;;;8.70;99.90;;;;;;4117694;28;20182;-62
2023/01/01 08:59:01;;;;;;;7.83;5.03;;;8.80;99.90;;;;;;4130313;28;20236;-62
2023/01/01 09:01:02;;;;;;;9.87;5.23;;;8.70;99.90;;;;;;4130321;28;20181;-63
2023/01/01 09:03:03;;;;;;;11.10;5.80;;;8.60;99.90;;;;;;4112671;28;20179;-62
2023/01/01 09:05:04;;;;;;;10.03;5.63;;;8.70;99.90;;;;;;4130023;28;20212;-62
2023/01/01 09:07:05;;;;;;;9.67;5.50;;;8.90;99.90;;;;;;4129497;28;20198;-62
2023/01/01 09:09:05;;;;;;;11.80;7.27;;;9.30;99.90;;;;;;4129846;28;20233;-63
2023/01/01 09:11:06;;;;;;;9.30;5.73;;;9.50;99.90;;;;;;4130047;28;20186;-62
2023/01/01 09:13:07;;;;;;;9.03;6.10;;;9.50;99.90;;;;;;4129975;28;20193;-62
2023/01/01 09:15:15;;;;;;;9.17;6.10;;;9.50;99.90;;;;;;4130120;28;20211;-66
2023/01/01 09:17:15;;;;;;;7.73;5.43;;;9.60;99.90;;;;;;4129507;28;20173;-63
2023/01/01 09:19:16;;;;;;;9.03;5.90;;;9.70;99.90;;;;;;4130127;28;20281;-63
2023/01/01 09:21:17;;;;;;;7.87;5.43;;;9.80;99.90;;;;;;4130338;28;20178;-62
2023/01/01 09:23:17;;;;;;;8.27;4.00;;;9.90;98.90;;;;;;4130125;28;20186;-63
2023/01/01 09:25:18;;;;;;;5.93;3.73;;;9.90;93.30;;;;;;4112379;28;20195;-63
2023/01/01 09:27:19;;;;;;;7.07;3.30;;;10.40;94.90;;;;;;4127809;28;20567;-63
2023/01/01 09:29:20;;;;;;;6.67;2.87;;;10.80;93.40;;;;;;4129843;28;20232;-63
2023/01/01 09:31:21;;;;;;;6.10;2.60;;;11.20;90.70;;;;;;4129900;28;20182;-63
2023/01/01 09:33:22;;;;;;;4.03;2.70;;;11.30;90.30;;;;;;4129938;28;20178;-62
2023/01/01 09:35:22;;;;;;;2.80;1.60;;;11.60;85.90;;;;;;4129658;28;20241;-63
2023/01/01 09:37:24;;;;;;;3.90;2.00;;;11.90;75.20;;;;;;4129162;28;20193;-63
2023/01/01 09:39:24;;;;;;;6.37;1.90;;;12.10;76.50;;;;;;4129693;28;20229;-63
2023/01/01 09:42:00;;;;;;;4.53;1.90;;;12.40;76.40;;;;;;4129718;28;20563;-62
2023/01/01 09:44:49;;;;;;;5.03;2.20;;;12.70;72.90;;;;;;4129948;28;20257;-63
2023/01/01 09:46:52;;;;;;;6.73;1.87;;;13.10;71.20;;;;;;4100325;28;20197;-63
2023/01/01 09:48:58;;;;;;;4.30;1.60;;;13.40;68.30;;;;;;4096412;29;20188;-63
2023/01/01 09:51:02;;;;;;;2.40;1.30;;;13.70;64.60;;;;;;4113716;28;20167;-63
2023/01/01 09:53:12;;;;;;;3.60;1.90;;;14.00;64.70;;;;;;4113491;28;20211;-63
2023/01/01 09:55:29;;;;;;;5.40;2.10;;;14.50;63.20;;;;;;4096272;29;20204;-63
2023/01/01 09:57:31;;;;;;;4.10;1.47;;;14.90;59.90;;;;;;4095790;29;20242;-63
2023/01/01 09:59:32;;;;;;;5.00;1.87;;;14.90;57.60;;;;;;4096082;28;20191;-63
2023/01/01 10:01:56;;;;;;;5.67;1.90;;;15.00;56.10;;;;;;4112833;28;20171;-63
2023/01/01 10:04:26;;;;;;;4.50;1.97;;;15.50;55.20;;;;;;4096106;29;20184;-64
2023/01/01 10:06:29;;;;;;;4.20;1.77;;;16.00;52.50;;;;;;4112756;28;20199;-64
2023/01/01 10:08:39;;;;;;;4.07;1.50;;;16.40;51.50;;;;;;4096064;29;20191;-64
2023/01/01 10:11:04;;;;;;;4.17;1.13;;;16.80;50.30;;;;;;4113331;28;20764;-64
2023/01/01 10:13:37;;;;;;;3.53;1.40;;;17.10;47.10;;;;;;4096314;29;20596;-64
2023/01/01 10:15:49;;;;;;;2.90;1.30;;;17.10;47.30;;;;;;4096319;29;20563;-65
2023/01/01 10:17:57;;;;;;;4.10;1.43;;;17.00;47.70;;;;;;4095740;29;20188;-64
2023/01/01 10:20:09;;;;;;;3.07;1.30;;;17.10;47.50;;;;;;4107463;28;20201;-63
2023/01/01 10:22:17;;;;;;;3.83;1.30;;;17.20;45.60;;;;;;4111710;28;20162;-63
2023/01/01 10:24:45;;;;;;;3.37;1.40;;;17.30;45.80;;;;;;4127466;28;20176;-63
2023/01/01 10:26:46;;;;;;;6.27;1.90;;;17.60;43.90;;;;;;4132467;28;20208;-63
2023/01/01 10:29:02;;;;;;;4.20;1.57;;;17.30;44.10;;;;;;4127272;28;20575;-63
2023/01/01 10:31:21;;;;;;;4.00;1.90;;;17.30;43.10;;;;;;4130623;28;20245;-63
2023/01/01 10:33:22;;;;;;;3.50;1.30;;;17.50;43.80;;;;;;4096325;28;20187;-63
2023/01/01 10:35:41;;;;;;;6.10;1.83;;;17.60;43.50;;;;;;4144146;28;20747;-63
2023/01/01 10:37:42;;;;;;;6.37;1.80;;;17.70;43.30;;;;;;4126648;28;20162;-63
2023/01/01 10:39:45;;;;;;;5.20;1.70;;;17.90;41.90;;;;;;4141419;28;20198;-63
2023/01/01 10:41:47;;;;;;;3.17;1.30;;;18.30;43.00;;;;;;4132247;28;20216;-63
2023/01/01 10:43:48;;;;;;;4.97;1.80;;;18.60;40.70;;;;;;4140528;28;20170;-63
2023/01/01 10:45:56;;;;;;;3.37;1.43;;;18.80;40.30;;;;;;4127565;28;20649;-63
2023/01/01 10:48:15;;;;;;;3.87;1.30;;;18.70;40.10;;;;;;4126570;28;20182;-63
2023/01/01 10:50:16;;;;;;;4.77;1.37;;;18.90;39.70;;;;;;4136368;28;20792;-64
2023/01/01 10:52:17;;;;;;;2.83;1.57;;;18.80;39.80;;;;;;4127295;28;20182;-63
2023/01/01 10:54:32;;;;;;;4.97;1.63;;;18.70;40.00;;;;;;4119530;28;20214;-63
2023/01/01 10:56:40;;;;;;;3.73;1.53;;;18.90;40.70;;;;;;4121012;28;20188;-62
2023/01/01 10:58:51;;;;;;;1.93;1.20;;;19.10;39.80;;;;;;4139803;28;20185;-63
2023/01/01 11:00:59;;;;;;;6.67;1.90;;;19.50;38.40;;;;;;4131868;28;20665;-63